Time;durP1;ratioP1;P1;durP2;ratioP2;P2;SDS_P1;SDS_P2;PMS_P1;PMS_P2;Temp;Humidity;BMP_temperature;BMP_pressure;BME280_temperature;BME280_humidity;BME280_pressure;Samples;Min_cycle;Max_cycle;Signal;HPM_P1;HPM_P2
2022/08/17 00:01:20;;;;;;;20.65;4.08;;;;;;;17.69;100.00;100174.92;1735657;82;20900;-43
2022/08/17 00:03:48;;;;;;;17.65;4.28;;;;;;;17.66;100.00;100187.70;1734875;81;21281;-43
2022/08/17 00:06:26;;;;;;;12.73;3.98;;;;;;;17.62;100.00;100187.95;1735611;82;21025;-43
2022/08/17 00:08:56;;;;;;;19.87;4.53;;;;;;;17.58;100.00;100185.13;1735653;82;21441;-43
2022/08/17 00:11:33;;;;;;;13.78;4.20;;;;;;;17.53;100.00;100187.49;1735592;82;20972;-43
2022/08/17 00:14:13;;;;;;;15.93;4.55;;;;;;;17.48;100.00;100188.20;1736022;82;21640;-43
2022/08/17 00:16:46;;;;;;;17.35;4.10;;;;;;;17.46;100.00;100192.67;1735577;82;21292;-43
2022/08/17 00:19:14;;;;;;;11.85;3.92;;;;;;;17.41;100.00;100184.66;1734387;82;21018;-43
2022/08/17 00:21:45;;;;;;;12.75;4.42;;;;;;;17.37;100.00;100187.44;1708782;82;21595;-43
2022/08/17 00:24:12;;;;;;;15.78;4.50;;;;;;;17.36;100.00;100182.30;1735677;82;21507;-43
2022/08/17 00:26:40;;;;;;;23.92;4.20;;;;;;;17.34;100.00;100186.77;1735636;82;20986;-43
2022/08/17 00:29:07;;;;;;;12.78;4.30;;;;;;;17.31;100.00;100185.63;1735522;82;21179;-43
2022/08/17 00:31:35;;;;;;;14.23;4.03;;;;;;;17.28;100.00;100185.75;1735544;82;21524;-43
2022/08/17 00:34:03;;;;;;;18.65;4.90;;;;;;;17.26;100.00;100187.60;1735362;82;20975;-43
2022/08/17 00:36:31;;;;;;;16.25;4.53;;;;;;;17.23;100.00;100184.22;1741075;81;20916;-43
2022/08/17 00:38:58;;;;;;;16.27;4.40;;;;;;;17.20;100.00;100187.00;1708741;82;21698;-43
2022/08/17 00:41:26;;;;;;;14.05;4.00;;;;;;;17.16;100.00;100181.54;1735609;82;21371;-43
2022/08/17 00:43:59;;;;;;;12.40;4.10;;;;;;;17.14;100.00;100175.55;1735548;82;20931;-43
2022/08/17 00:46:39;;;;;;;16.00;4.10;;;;;;;17.12;100.00;100164.31;1735843;82;20912;-43
2022/08/17 00:49:07;;;;;;;19.80;4.22;;;;;;;17.09;100.00;100167.09;1708572;82;21484;-43
2022/08/17 00:51:45;;;;;;;14.13;3.90;;;;;;;17.04;100.00;100167.31;1735725;82;21026;-43
2022/08/17 00:54:25;;;;;;;12.28;3.92;;;;;;;17.00;100.00;100163.61;1735607;82;21163;-44
2022/08/17 00:56:56;;;;;;;18.98;3.95;;;;;;;16.94;100.00;100164.28;1735563;82;20951;-43
2022/08/17 00:59:29;;;;;;;12.18;3.80;;;;;;;16.90;100.00;100166.66;1735756;82;21046;-43
2022/08/17 01:01:55;;;;;;;15.43;4.25;;;;;;;16.87;100.00;100165.52;1735691;82;21034;-43
2022/08/17 01:04:23;;;;;;;12.90;4.22;;;;;;;16.81;100.00;100157.98;1735579;81;20947;-43
2022/08/17 01:06:51;;;;;;;10.18;3.92;;;;;;;16.77;100.00;100161.20;1735780;82;21255;-43
2022/08/17 01:09:18;;;;;;;21.15;4.40;;;;;;;16.79;100.00;100167.64;1735843;82;21043;-43
2022/08/17 01:11:45;;;;;;;13.22;4.40;;;;;;;16.80;100.00;100170.67;1735658;82;20986;-43
2022/08/17 01:14:14;;;;;;;12.63;3.87;;;;;;;16.84;100.00;100175.27;1735658;82;20932;-43
2022/08/17 01:16:40;;;;;;;10.50;3.77;;;;;;;16.81;100.00;100173.66;1735917;82;21117;-43
2022/08/17 01:19:16;;;;;;;10.28;3.95;;;;;;;16.77;100.00;100170.79;1722375;82;21258;-43
2022/08/17 01:23:28;;;;;;;11.90;4.03;;;;;;;16.79;100.00;100176.34;1798409;79;22306;-43
2022/08/17 01:25:57;;;;;;;12.45;4.50;;;;;;;16.74;100.00;100170.94;1758271;81;21490;-43
2022/08/17 01:28:26;;;;;;;13.85;4.10;;;;;;;16.76;100.00;100163.88;1758108;81;21804;-43
2022/08/17 01:30:54;;;;;;;15.88;4.00;;;;;;;16.76;100.00;100156.89;1673090;83;20912;-43
2022/08/17 01:33:20;;;;;;;31.20;4.55;;;;;;;16.80;100.00;100156.29;1724547;83;20939;-42
2022/08/17 01:35:48;;;;;;;14.73;4.10;;;;;;;16.79;100.00;100150.64;1724602;83;21454;-43
2022/08/17 01:38:15;;;;;;;14.47;4.33;;;;;;;16.79;100.00;100153.27;1724705;83;20896;-43
2022/08/17 01:40:52;;;;;;;13.50;4.28;;;;;;;16.80;100.00;100152.37;1724590;83;22121;-43
2022/08/17 01:43:30;;;;;;;13.03;3.83;;;;;;;16.81;100.00;100153.59;1724462;83;20968;-44
2022/08/17 01:45:58;;;;;;;16.17;4.35;;;;;;;16.81;100.00;100153.59;1719849;83;21513;-43
2022/08/17 01:48:34;;;;;;;16.70;4.10;;;;;;;16.83;100.00;100159.20;1724711;83;20939;-43
2022/08/17 01:51:01;;;;;;;11.68;4.97;;;;;;;16.85;100.00;100150.81;1696403;83;21092;-43
2022/08/17 01:53:35;;;;;;;12.73;4.17;;;;;;;16.88;100.00;100149.35;1724421;83;21379;-43
2022/08/17 01:56:06;;;;;;;24.57;5.70;;;;;;;16.91;100.00;100150.50;1724430;83;20983;-43
2022/08/17 01:58:35;;;;;;;8.90;3.42;;;;;;;16.90;100.00;100145.75;1724517;83;20975;-44
2022/08/17 02:01:02;;;;;;;12.28;4.03;;;;;;;16.83;100.00;100136.53;1724618;83;20987;-43
2022/08/17 02:03:30;;;;;;;25.27;5.33;;;;;;;16.77;100.00;100135.06;1724379;83;20928;-43
2022/08/17 02:05:57;;;;;;;17.80;4.55;;;;;;;16.72;100.00;100137.51;1690406;84;21245;-44
2022/08/17 02:08:24;;;;;;;15.78;3.85;;;;;;;16.68;100.00;100134.66;1716649;82;20900;-43
2022/08/17 02:10:51;;;;;;;10.68;3.62;;;;;;;16.61;100.00;100146.73;1709216;84;21034;-44
2022/08/17 02:13:20;;;;;;;18.87;3.85;;;;;;;16.56;100.00;100142.20;1709238;84;20972;-43
2022/08/17 02:15:47;;;;;;;15.78;4.65;;;;;;;16.51;100.00;100140.24;1709158;84;21007;-43
2022/08/17 02:18:14;;;;;;;7.45;3.40;;;;;;;16.47;100.00;100137.39;1709123;84;21251;-44
2022/08/17 02:20:41;;;;;;;7.40;3.80;;;;;;;16.42;100.00;100144.17;1709153;84;21031;-44
2022/08/17 02:23:09;;;;;;;14.30;3.72;;;;;;;16.38;100.00;100138.67;1703763;83;21066;-43
2022/08/17 02:25:36;;;;;;;11.03;3.87;;;;;;;16.35;100.00;100138.38;1711559;83;21580;-43
2022/08/17 02:28:04;;;;;;;15.00;4.12;;;;;;;16.31;100.00;100148.59;1702095;84;20983;-43
2022/08/17 02:30:32;;;;;;;8.83;3.58;;;;;;;16.29;100.00;100150.41;1711728;83;21902;-43
2022/08/17 02:32:59;;;;;;;21.35;4.33;;;;;;;16.26;100.00;100146.63;1701947;84;20944;-43
2022/08/17 02:35:26;;;;;;;9.75;3.47;;;;;;;16.24;100.00;100144.55;1711184;82;21011;-43
2022/08/17 02:37:53;;;;;;;14.40;4.90;;;;;;;16.20;100.00;100143.02;1701463;84;20924;-43
2022/08/17 02:40:20;;;;;;;13.43;3.87;;;;;;;16.16;100.00;100141.00;1711049;83;20944;-44
2022/08/17 02:42:47;;;;;;;11.10;4.00;;;;;;;16.15;100.00;100147.13;1701642;84;22008;-44
2022/08/17 02:45:18;;;;;;;13.83;3.98;;;;;;;16.14;100.00;100151.14;1711176;83;21541;-44
2022/08/17 02:47:45;;;;;;;7.85;3.80;;;;;;;16.13;100.00;100147.67;1701395;84;22156;-43
2022/08/17 02:50:14;;;;;;;19.05;4.67;;;;;;;16.16;100.00;100155.36;1711028;83;20994;-44
2022/08/17 02:52:42;;;;;;;13.55;4.60;;;;;;;16.16;100.00;100146.69;1701465;84;20963;-44
2022/08/17 02:55:15;;;;;;;23.00;5.60;;;;;;;16.16;100.00;100148.00;1711166;83;21249;-43
2022/08/17 02:57:42;;;;;;;8.98;4.03;;;;;;;16.20;100.00;100149.55;1682329;85;20947;-44
2022/08/17 03:00:15;;;;;;;9.35;3.90;;;;;;;16.23;100.00;100146.78;1701484;84;21060;-43
2022/08/17 03:02:42;;;;;;;11.40;4.08;;;;;;;16.25;100.00;100148.03;1685811;85;20937;-44
2022/08/17 03:05:12;;;;;;;8.00;3.87;;;;;;;16.24;100.00;100144.55;1711048;83;20951;-43
2022/08/17 03:07:38;;;;;;;7.92;3.98;;;;;;;16.24;100.00;100140.64;1701600;84;21148;-43
2022/08/17 03:10:07;;;;;;;13.38;3.70;;;;;;;16.25;100.00;100144.94;1711098;83;21489;-43
2022/08/17 03:12:36;;;;;;;10.95;3.52;;;;;;;16.25;100.00;100146.25;1701377;84;20979;-43
2022/08/17 03:15:10;;;;;;;10.58;4.20;;;;;;;16.27;100.00;100147.50;1711464;82;20936;-43
2022/08/17 03:17:37;;;;;;;6.50;4.03;;;;;;;16.29;100.00;100141.73;1681813;85;21413;-44
2022/08/17 03:20:06;;;;;;;11.68;4.20;;;;;;;16.31;100.00;100136.84;1701532;84;21218;-44
2022/08/17 03:22:45;;;;;;;15.58;4.03;;;;;;;16.35;100.00;100133.16;1714937;83;21646;-44
2022/08/17 03:25:14;;;;;;;10.13;4.20;;;;;;;16.40;100.00;100129.48;1692722;84;20944;-43
2022/08/17 03:27:41;;;;;;;17.27;4.42;;;;;;;16.44;100.00;100129.71;1692740;84;21528;-43
2022/08/17 03:30:10;;;;;;;13.32;4.15;;;;;;;16.49;100.00;100132.50;1692880;84;20986;-43
2022/08/17 03:32:39;;;;;;;16.50;5.42;;;;;;;16.56;100.00;100131.75;1692867;84;21282;-43
2022/08/17 03:35:06;;;;;;;10.43;3.85;;;;;;;16.65;100.00;100126.06;1721393;82;21429;-44
2022/08/17 03:37:34;;;;;;;18.67;4.05;;;;;;;16.75;100.00;100132.98;1695195;83;21504;-43
2022/08/17 03:40:02;;;;;;;13.90;4.10;;;;;;;16.87;100.00;100132.84;1692790;84;21049;-43
2022/08/17 03:42:29;;;;;;;22.52;4.47;;;;;;;16.99;100.00;100143.62;1692911;84;20956;-43
2022/08/17 03:44:57;;;;;;;11.05;3.98;;;;;;;17.10;100.00;100147.86;1692660;84;21147;-44
2022/08/17 03:58:26;;;;;;;14.17;5.10;;;;;;;17.70;100.00;100136.05;1721974;82;21265;-44
2022/08/17 04:00:53;;;;;;;16.35;4.25;;;;;;;17.91;100.00;100139.75;1721606;83;21521;-44
2022/08/17 04:03:20;;;;;;;18.50;5.42;;;;;;;18.10;100.00;100140.92;1665658;84;20956;-44
2022/08/17 04:05:47;;;;;;;17.23;5.05;;;;;;;18.28;100.00;100134.30;1721701;83;20987;-44
2022/08/17 04:08:14;;;;;;;14.85;4.47;;;;;;;18.48;100.00;100138.41;1692807;84;20947;-43
2022/08/17 04:10:41;;;;;;;12.20;4.22;;;;;;;18.63;100.00;100142.78;1692786;84;21237;-43
2022/08/17 04:13:09;;;;;;;14.93;4.70;;;;;;;18.75;100.00;100133.38;1666977;84;20868;-43
2022/08/17 04:15:36;;;;;;;12.15;5.12;;;;;;;18.89;100.00;100132.56;1721630;83;20992;-44
2022/08/17 04:18:03;;;;;;;17.75;6.08;;;;;;;19.05;100.00;100133.84;1721580;83;20975;-43
2022/08/17 04:20:30;;;;;;;14.55;4.72;;;;;;;19.24;100.00;100132.27;1692701;84;20880;-44
2022/08/17 04:23:07;;;;;;;17.77;5.95;;;;;;;19.50;100.00;100144.28;1692593;84;21252;-44
2022/08/17 04:25:37;;;;;;;16.85;5.75;;;;;;;19.78;100.00;100147.83;1692614;83;20947;-44
2022/08/17 04:28:04;;;;;;;18.80;6.28;;;;;;;20.09;100.00;100140.71;1692559;84;20955;-44
2022/08/17 04:30:33;;;;;;;16.57;6.28;;;;;;;20.43;100.00;100140.30;1692555;84;21050;-44
2022/08/17 04:33:07;;;;;;;14.70;6.45;;;;;;;20.72;100.00;100138.89;1692776;84;21441;-44
2022/08/17 04:35:38;;;;;;;17.40;6.15;;;;;;;20.99;100.00;100141.11;1692967;84;21884;-44
2022/08/17 04:38:06;;;;;;;21.30;6.45;;;;;;;21.33;100.00;100140.97;1692653;84;20943;-44
2022/08/17 04:43:21;;;;;;;17.95;5.97;;;;;;;21.90;100.00;100149.84;1721663;83;21005;-44
2022/08/17 04:45:53;;;;;;;15.88;6.42;;;;;;;22.08;100.00;100152.45;1692791;84;21002;-44
2022/08/17 04:48:20;;;;;;;18.35;6.53;;;;;;;22.33;100.00;100156.45;1692682;84;22185;-44
2022/08/17 04:50:48;;;;;;;15.90;6.55;;;;;;;22.53;100.00;100151.05;1692562;83;20927;-44
2022/08/17 04:53:16;;;;;;;10.88;6.90;;;;;;;22.62;100.00;100156.13;1692702;84;21538;-44
2022/08/17 04:55:43;;;;;;;15.28;6.95;;;;;;;22.71;100.00;100156.75;1721640;83;20923;-44
2022/08/17 04:58:10;;;;;;;18.40;7.30;;;;;;;22.81;100.00;100155.13;1721623;83;21532;-44
2022/08/17 05:00:37;;;;;;;14.23;7.62;;;;;;;22.91;100.00;100163.20;1692793;84;21383;-44
2022/08/17 05:03:04;;;;;;;21.23;7.90;;;;;;;23.03;100.00;100157.47;1692734;84;20994;-44
2022/08/17 05:05:35;;;;;;;20.08;9.23;;;;;;;23.14;100.00;100155.34;1692866;83;21516;-44
2022/08/17 05:08:03;;;;;;;31.77;11.63;;;;;;;23.20;100.00;100159.28;1666721;84;21064;-44
2022/08/17 05:10:35;;;;;;;30.27;9.90;;;;;;;23.24;100.00;100154.98;1692720;84;21422;-44
2022/08/17 05:13:07;;;;;;;25.23;11.18;;;;;;;23.33;100.00;100153.94;1692635;84;21868;-44
2022/08/17 05:15:37;;;;;;;30.90;10.60;;;;;;;23.47;100.00;100148.44;1721541;83;21082;-44
2022/08/17 05:18:04;;;;;;;30.20;11.55;;;;;;;23.66;100.00;100146.50;1692714;84;20927;-44
2022/08/17 05:20:31;;;;;;;39.00;10.90;;;;;;;23.89;99.53;100144.34;1692735;84;20963;-44
2022/08/17 05:23:03;;;;;;;38.80;11.80;;;;;;;24.07;98.45;100150.80;1687517;84;21528;-44
2022/08/17 05:25:32;;;;;;;39.35;12.53;;;;;;;24.23;98.27;100138.50;1695964;84;21253;-44
2022/08/17 05:27:59;;;;;;;30.62;12.20;;;;;;;24.43;97.02;100147.12;1696128;84;20917;-44
2022/08/17 05:30:26;;;;;;;46.05;13.50;;;;;;;24.56;95.89;100144.30;1695760;83;20949;-43
2022/08/17 05:32:59;;;;;;;45.10;13.45;;;;;;;24.61;95.11;100138.14;1695904;84;21415;-44
2022/08/17 05:35:28;;;;;;;44.73;13.43;;;;;;;24.67;95.02;100139.80;1696116;84;21004;-44
2022/08/17 05:37:55;;;;;;;48.85;12.85;;;;;;;24.63;94.14;100142.34;1695810;84;21073;-44
2022/08/17 05:40:22;;;;;;;64.37;13.98;;;;;;;24.59;94.64;100142.72;1695769;83;20989;-43
2022/08/17 05:42:50;;;;;;;49.33;12.68;;;;;;;24.53;95.28;100148.03;1695794;84;20956;-43
2022/08/17 05:45:18;;;;;;;79.67;14.40;;;;;;;24.50;95.22;100145.64;1695928;84;21008;-44
2022/08/17 05:47:46;;;;;;;61.80;12.05;;;;;;;24.41;94.50;100147.23;1664284;84;20967;-44
2022/08/17 05:50:21;;;;;;;61.45;12.47;;;;;;;24.32;95.11;100144.84;1695897;84;21213;-43
2022/08/17 05:53:09;;;;;;;54.25;12.93;;;;;;;24.28;95.67;100145.25;1694505;84;21007;-44
2022/08/17 05:55:50;;;;;;;53.68;11.38;;;;;;;24.22;95.30;100143.94;1695050;84;20964;-44
2022/08/17 05:58:49;;;;;;;76.92;12.93;;;;;;;24.16;95.86;100148.41;1696081;84;21008;-44
2022/08/17 06:01:28;;;;;;;64.27;11.38;;;;;;;24.07;96.37;100144.20;1695964;84;20973;-43
2022/08/17 06:04:29;;;;;;;47.95;12.05;;;;;;;24.05;96.31;100146.13;1695381;84;21240;-44
2022/08/17 06:07:20;;;;;;;60.78;12.68;;;;;;;23.94;96.32;100147.45;1695891;84;20955;-44
2022/08/17 06:10:33;;;;;;;64.20;11.95;;;;;;;23.98;96.37;100144.91;1695956;83;20961;-44
2022/08/17 06:13:37;;;;;;;66.90;13.45;;;;;;;24.10;96.55;100145.77;1696120;84;20932;-44
2022/08/17 06:16:17;;;;;;;40.60;11.93;;;;;;;24.19;97.22;100142.86;1695829;84;21018;-44
2022/08/17 06:18:58;;;;;;;48.90;11.18;;;;;;;24.20;96.86;100148.50;1695922;84;21856;-44
2022/08/17 06:21:27;;;;;;;52.75;11.55;;;;;;;24.24;96.92;100148.11;1696043;84;20996;-44
2022/08/17 06:24:09;;;;;;;43.40;11.18;;;;;;;24.31;96.66;100151.11;1706539;83;20938;-44
2022/08/17 06:26:38;;;;;;;37.65;10.13;;;;;;;24.41;96.79;100156.48;1720640;83;21005;-44
2022/08/17 06:29:16;;;;;;;34.95;10.95;;;;;;;24.56;96.33;100155.70;1692840;84;21021;-44
2022/08/17 06:31:43;;;;;;;40.12;10.93;;;;;;;24.63;96.10;100157.37;1692320;84;21231;-44
2022/08/17 06:34:10;;;;;;;37.20;11.15;;;;;;;24.76;95.67;100153.25;1721516;83;21390;-44
2022/08/17 06:37:06;;;;;;;40.52;10.75;;;;;;;24.91;95.86;100153.30;1692995;84;20919;-43
2022/08/17 06:39:58;;;;;;;36.20;10.13;;;;;;;25.06;95.20;100152.95;1692934;83;21080;-44
2022/08/17 06:42:53;;;;;;;52.98;10.25;;;;;;;25.22;94.48;100152.48;1721720;83;20951;-44
2022/08/17 06:45:30;;;;;;;47.62;11.88;;;;;;;25.32;94.45;100156.52;1692783;84;21224;-44
2022/08/17 06:48:25;;;;;;;48.48;11.28;;;;;;;25.35;93.78;100165.05;1692668;84;20998;-44
2022/08/17 06:51:09;;;;;;;53.73;11.80;;;;;;;25.37;94.20;100160.92;1692389;84;20998;-44
2022/08/17 06:53:53;;;;;;;45.35;12.03;;;;;;;25.37;94.20;100165.75;1692804;84;20915;-44
2022/08/17 06:56:33;;;;;;;55.33;12.58;;;;;;;25.39;94.62;100164.31;1721662;83;20949;-44
2022/08/17 06:59:00;;;;;;;49.15;12.60;;;;;;;25.50;94.10;100162.92;1721709;83;21270;-44
2022/08/17 07:01:33;;;;;;;60.15;11.93;;;;;;;25.62;93.69;100163.66;1692729;84;20899;-43
2022/08/17 07:04:15;;;;;;;53.10;10.88;;;;;;;25.69;94.55;100160.00;1692848;84;20915;-44
2022/08/17 07:06:59;;;;;;;47.60;12.05;;;;;;;25.73;94.34;100157.43;1692191;84;20999;-44
2022/08/17 07:09:35;;;;;;;40.70;10.13;;;;;;;25.80;94.27;100161.21;1721029;83;20907;-44
2022/08/17 07:12:10;;;;;;;41.77;11.12;;;;;;;25.93;93.63;100162.80;1692606;84;21149;-44
2022/08/17 07:15:03;;;;;;;40.05;9.78;;;;;;;26.03;91.68;100161.00;1689738;84;20959;-44
2022/08/17 07:17:31;;;;;;;34.23;10.25;;;;;;;26.16;92.33;100158.13;1721710;83;21430;-44
2022/08/17 07:20:04;;;;;;;35.15;8.63;;;;;;;26.21;90.70;100153.73;1667197;84;20919;-44
2022/08/17 07:22:48;;;;;;;26.30;8.90;;;;;;;26.25;91.13;100152.48;1721534;83;21085;-44
2022/08/17 07:25:21;;;;;;;34.85;9.65;;;;;;;26.27;90.05;100156.30;1661972;83;21269;-44
2022/08/17 07:27:51;;;;;;;30.25;8.78;;;;;;;26.34;89.88;100151.64;1720764;83;20919;-44
2022/08/17 07:30:40;;;;;;;23.55;8.30;;;;;;;26.46;88.25;100155.00;1692679;84;21058;-44
2022/08/17 07:33:18;;;;;;;24.57;8.50;;;;;;;26.55;87.69;100153.33;1692926;84;20972;-44
2022/08/17 07:35:47;;;;;;;36.88;8.43;;;;;;;26.68;86.91;100153.90;1721170;83;20888;-44
2022/08/17 07:38:24;;;;;;;25.17;8.03;;;;;;;26.81;86.93;100150.95;1721719;83;21471;-44
2022/08/17 07:41:01;;;;;;;30.75;8.68;;;;;;;26.97;84.43;100152.20;1692738;84;21018;-44
2022/08/17 07:43:42;;;;;;;28.73;8.68;;;;;;;27.00;84.03;100152.41;1692517;84;21579;-44
2022/08/17 07:49:16;;;;;;;26.33;8.88;;;;;;;27.07;83.61;100153.51;1692742;84;21008;-44
2022/08/17 07:51:51;;;;;;;28.80;8.80;;;;;;;27.20;82.97;100151.39;1721556;83;21886;-44
2022/08/17 07:54:22;;;;;;;31.60;9.03;;;;;;;27.33;84.18;100161.70;1695024;83;20955;-44
2022/08/17 07:56:54;;;;;;;19.80;7.62;;;;;;;27.41;82.64;100153.01;1692515;83;20975;-44
2022/08/17 07:59:37;;;;;;;25.27;9.45;;;;;;;27.62;83.37;100157.27;1692960;83;20998;-44
2022/08/17 08:02:33;;;;;;;27.40;8.65;;;;;;;27.89;79.46;100147.61;1692766;83;20943;-44
2022/08/17 08:05:12;;;;;;;27.75;8.50;;;;;;;27.94;80.83;100150.17;1721633;83;21222;-44
2022/08/17 08:08:02;;;;;;;39.70;8.18;;;;;;;28.17;78.78;100143.13;1696889;83;20880;-44
2022/08/17 08:10:37;;;;;;;24.25;7.90;;;;;;;28.39;77.98;100141.83;1692780;84;21002;-44
2022/08/17 08:13:21;;;;;;;23.85;9.38;;;;;;;28.66;77.42;100134.73;1692664;84;20939;-44
2022/08/17 08:15:52;;;;;;;33.18;8.80;;;;;;;28.81;74.32;100140.88;1692773;84;20999;-44
2022/08/17 08:18:34;;;;;;;20.55;8.53;;;;;;;28.79;73.95;100136.20;1665074;84;21279;-44
2022/08/17 08:21:17;;;;;;;25.25;8.83;;;;;;;28.84;72.96;100133.91;1721565;82;21006;-44
2022/08/17 08:24:32;;;;;;;36.08;9.10;;;;;;;28.91;72.80;100137.61;1689542;84;21020;-44
2022/08/17 08:27:21;;;;;;;28.23;8.53;;;;;;;29.05;72.58;100136.23;1735927;82;20952;-44
2022/08/17 08:30:14;;;;;;;25.52;8.93;;;;;;;29.30;73.21;100132.85;1691311;82;21403;-44
2022/08/17 08:33:07;;;;;;;25.12;8.35;;;;;;;29.56;70.80;100137.33;1735889;82;21253;-44
2022/08/17 08:35:43;;;;;;;27.65;8.25;;;;;;;29.68;70.10;100128.87;1735936;82;20976;-45
2022/08/17 08:38:41;;;;;;;26.07;8.73;;;;;;;29.80;69.13;100131.23;1735898;82;21051;-44
2022/08/17 08:41:26;;;;;;;25.10;7.45;;;;;;;30.04;68.99;100129.66;1735868;82;20906;-44
2022/08/17 08:44:20;;;;;;;33.88;8.48;;;;;;;30.32;68.17;100128.87;1736312;82;20937;-44
2022/08/17 08:47:11;;;;;;;32.58;8.70;;;;;;;30.58;68.14;100131.06;1720986;82;21292;-44
2022/08/17 08:49:52;;;;;;;25.75;8.23;;;;;;;30.78;64.75;100126.22;1720340;83;21045;-44
2022/08/17 08:52:49;;;;;;;23.75;7.78;;;;;;;30.66;64.31;100118.55;1729993;82;21063;-44
2022/08/17 08:55:44;;;;;;;25.52;8.23;;;;;;;30.36;64.51;100130.20;1735857;82;21395;-43
2022/08/17 08:58:16;;;;;;;28.12;8.18;;;;;;;29.91;66.01;100126.95;1736248;82;20949;-44
2022/08/17 09:00:48;;;;;;;22.82;8.20;;;;;;;29.51;66.34;100128.47;1734736;82;21088;-44
2022/08/17 09:03:42;;;;;;;30.75;8.23;;;;;;;29.25;69.11;100120.84;1714844;82;20989;-43
2022/08/17 09:06:23;;;;;;;20.77;7.17;;;;;;;29.37;69.67;100119.22;1735965;82;21363;-42
2022/08/17 09:09:11;;;;;;;24.65;8.55;;;;;;;29.56;69.17;100114.19;1735973;82;20940;-43
2022/08/17 09:12:12;;;;;;;24.10;8.10;;;;;;;29.46;69.21;100112.13;1735958;82;20917;-44
2022/08/17 09:14:50;;;;;;;25.82;7.97;;;;;;;29.21;68.32;100110.66;1736543;81;21329;-44
2022/08/17 09:17:35;;;;;;;22.00;8.48;;;;;;;29.00;68.63;100106.54;1735680;82;20873;-43
2022/08/17 09:21:02;;;;;;;31.93;8.43;;;;;;;28.92;70.06;100111.31;1736209;81;21525;-44
2022/08/17 09:23:39;;;;;;;;;;;;;;;28.84;72.15;100102.47;1738458;82;20877;-45
2022/08/17 09:26:30;;;;;;;31.20;8.60;;;;;;;28.65;71.43;100101.12;1749652;80;20161;-43
2022/08/17 09:29:00;;;;;;;25.60;7.25;;;;;;;28.41;72.89;100100.45;1747815;82;21160;-43
2022/08/17 09:31:46;;;;;;;23.70;7.40;;;;;;;28.45;74.74;100099.66;1749683;82;21018;-42
2022/08/17 09:34:17;;;;;;;30.15;7.67;;;;;;;28.75;72.55;100093.55;1749809;81;21030;-43
2022/08/17 09:36:52;;;;;;;26.23;8.53;;;;;;;29.30;71.34;100087.55;1749894;82;20865;-43
2022/08/17 09:39:36;;;;;;;29.75;8.63;;;;;;;29.81;69.70;100087.09;1750094;82;21466;-43
2022/08/17 09:42:14;;;;;;;27.40;8.05;;;;;;;30.13;66.77;100097.16;1749866;82;21897;-44
2022/08/17 09:44:56;;;;;;;24.82;8.03;;;;;;;30.60;67.93;100097.02;1748991;82;20885;-43
2022/08/17 09:47:42;;;;;;;27.27;8.30;;;;;;;31.01;65.69;100088.94;1749833;82;20984;-43
2022/08/17 09:50:18;;;;;;;24.40;7.42;;;;;;;31.36;63.22;100089.53;1749357;82;21486;-44
2022/08/17 09:52:45;;;;;;;25.05;8.18;;;;;;;31.71;61.13;100091.02;1747505;82;20937;-43
2022/08/17 09:55:12;;;;;;;25.75;8.30;;;;;;;31.90;60.75;100087.92;1750202;82;21086;-43
2022/08/17 09:58:08;;;;;;;26.55;7.80;;;;;;;32.06;62.52;100095.00;1722349;82;20922;-44
2022/08/17 10:00:38;;;;;;;30.05;8.35;;;;;;;32.36;61.86;100087.62;1748910;82;20956;-42
2022/08/17 10:03:27;;;;;;;27.52;8.88;;;;;;;32.72;59.71;100091.48;1750240;82;20964;-44
2022/08/17 10:06:14;;;;;;;26.52;8.23;;;;;;;32.96;60.29;100089.88;1749937;82;20964;-43
2022/08/17 10:08:51;;;;;;;25.62;7.50;;;;;;;33.06;58.35;100094.95;1748169;82;21140;-44
2022/08/17 10:14:44;;;;;;;28.10;7.53;;;;;;;33.25;58.02;100088.22;1750081;81;20944;-44
2022/08/17 10:17:35;;;;;;;24.30;6.58;;;;;;;33.46;57.23;100089.83;1750011;82;20894;-44
2022/08/17 10:20:42;;;;;;;24.10;7.00;;;;;;;33.61;57.96;100089.30;1749938;82;20968;-44
2022/08/17 10:26:23;;;;;;;32.58;7.12;;;;;;;33.71;54.20;100091.65;1737868;81;21000;-44
2022/08/17 10:29:18;;;;;;;19.75;7.05;;;;;;;33.91;55.37;100095.91;1735953;82;20972;-44
2022/08/17 10:31:51;;;;;;;26.90;6.83;;;;;;;33.98;54.38;100094.67;1736030;82;20968;-44
2022/08/17 10:34:53;;;;;;;20.55;7.03;;;;;;;34.23;53.96;100088.37;1735061;82;22189;-44
2022/08/17 10:37:53;;;;;;;29.10;7.47;;;;;;;34.34;53.61;100094.23;1735776;82;21498;-44
2022/08/17 10:40:37;;;;;;;34.90;7.75;;;;;;;34.47;53.48;100090.33;1735839;81;20976;-44
2022/08/17 10:43:40;;;;;;;23.90;7.37;;;;;;;34.50;52.08;100094.52;1736066;82;20969;-44
2022/08/17 10:46:27;;;;;;;21.12;6.40;;;;;;;34.41;51.00;100087.09;1736088;82;20884;-44
2022/08/17 10:49:21;;;;;;;12.68;6.67;;;;;;;33.99;50.67;100082.91;1735890;82;20929;-44
2022/08/17 10:51:54;;;;;;;20.08;6.75;;;;;;;33.78;52.60;100081.84;1736199;81;21182;-44
2022/08/17 10:54:37;;;;;;;35.65;7.05;;;;;;;33.91;51.40;100077.61;1736196;81;21037;-44
2022/08/17 10:57:32;;;;;;;28.00;6.70;;;;;;;33.94;51.09;100075.89;1735958;82;21530;-44
2022/08/17 11:00:28;;;;;;;17.37;6.00;;;;;;;33.74;53.69;100080.56;1736070;82;21355;-44
2022/08/17 11:02:56;;;;;;;33.55;6.90;;;;;;;33.73;52.28;100072.20;1736043;82;21039;-43
2022/08/17 11:05:52;;;;;;;19.87;6.40;;;;;;;33.80;51.48;100070.41;1735990;81;21165;-44
2022/08/17 11:09:03;;;;;;;26.27;6.70;;;;;;;33.82;49.65;100069.70;1735939;82;20933;-44
2022/08/17 11:12:17;;;;;;;31.33;6.55;;;;;;;33.68;49.25;100071.42;1735865;82;20964;-44
2022/08/17 11:15:05;;;;;;;25.10;5.90;;;;;;;33.63;50.84;100060.93;1735969;82;20957;-44
2022/08/17 11:18:03;;;;;;;19.85;5.80;;;;;;;33.69;49.27;100061.50;1739967;81;20908;-44
2022/08/17 11:20:45;;;;;;;26.93;6.17;;;;;;;33.80;49.42;100061.02;1736054;82;21773;-44
2022/08/17 11:23:24;;;;;;;9.70;4.92;;;;;;;33.92;48.89;100063.17;1735894;82;21004;-44
2022/08/17 11:25:56;;;;;;;16.12;6.22;;;;;;;34.10;48.80;100054.20;1735869;81;21323;-44
2022/08/17 11:28:27;;;;;;;17.02;6.05;;;;;;;34.09;48.28;100053.87;1736165;82;20901;-45
2022/08/17 11:31:00;;;;;;;16.75;5.80;;;;;;;34.09;48.18;100055.72;1735900;82;21510;-44
2022/08/17 11:33:43;;;;;;;15.32;6.10;;;;;;;34.03;47.38;100047.95;1736300;82;21221;-44
2022/08/17 11:36:38;;;;;;;17.32;5.95;;;;;;;33.94;47.16;100049.90;1735852;82;21419;-44
2022/08/17 11:39:45;;;;;;;14.07;5.62;;;;;;;33.86;46.66;100049.19;1735270;82;21000;-44
2022/08/17 11:42:38;;;;;;;17.75;5.83;;;;;;;33.47;47.92;100042.73;1733802;82;20972;-44
2022/08/17 11:45:39;;;;;;;20.85;5.97;;;;;;;33.09;48.79;100039.67;1735939;82;20941;-44
2022/08/17 11:53:58;;;;;;;11.93;5.25;;;;;;;32.96;51.25;100034.94;1735905;82;20956;-44
2022/08/17 11:56:46;;;;;;;19.52;5.47;;;;;;;33.19;49.60;100032.66;1735911;82;21436;-45
2022/08/17 11:59:40;;;;;;;15.75;5.67;;;;;;;33.39;49.92;100036.09;1735435;82;21024;-44
2022/08/17 12:02:31;;;;;;;14.23;5.47;;;;;;;33.65;49.43;100031.56;1735796;82;22035;-44
2022/08/17 12:05:12;;;;;;;18.98;5.65;;;;;;;33.86;49.35;100024.55;1735777;82;21015;-44
2022/08/17 12:07:50;;;;;;;21.65;6.28;;;;;;;34.08;49.60;100024.03;1735941;82;20858;-44
2022/08/17 12:10:20;;;;;;;11.85;5.60;;;;;;;34.26;46.93;100018.70;1735866;82;21384;-44
2022/08/17 12:12:48;;;;;;;15.80;5.42;;;;;;;34.46;48.00;100019.34;1735632;82;21371;-44
2022/08/17 12:15:33;;;;;;;10.30;5.50;;;;;;;34.64;45.14;100014.33;1715173;82;21094;-44
2022/08/17 12:18:00;;;;;;;11.30;5.08;;;;;;;34.55;45.46;100008.80;1736092;82;21518;-44
2022/08/17 12:20:39;;;;;;;15.80;6.35;;;;;;;34.62;44.58;100007.51;1735963;82;20960;-44
2022/08/17 12:23:19;;;;;;;14.73;5.80;;;;;;;34.61;47.02;99998.61;1735701;81;20984;-43
2022/08/17 12:25:55;;;;;;;14.83;5.87;;;;;;;34.74;47.37;99993.00;1741654;82;20921;-42